sensor_id;sensor_type;location;lat;lon;timestamp;P1;durP1;ratioP1;P2;durP2;ratioP2
10248;SDS011;5169;50.560;9.714;2023-05-10T00:00:10;206.10;;;110.87;;
10248;SDS011;5169;50.560;9.714;2023-05-10T00:02:47;202.90;;;111.83;;
10248;SDS011;5169;50.560;9.714;2023-05-10T00:05:18;199.73;;;111.77;;
10248;SDS011;5169;50.560;9.714;2023-05-10T00:07:44;196.43;;;108.43;;
10248;SDS011;5169;50.560;9.714;2023-05-10T00:10:15;194.23;;;111.33;;
10248;SDS011;5169;50.560;9.714;2023-05-10T00:12:41;208.77;;;112.33;;
10248;SDS011;5169;50.560;9.714;2023-05-10T00:15:07;213.57;;;109.70;;
10248;SDS011;5169;50.560;9.714;2023-05-10T00:17:33;195.90;;;109.63;;
10248;SDS011;5169;50.560;9.714;2023-05-10T00:19:59;202.77;;;102.90;;
10248;SDS011;5169;50.560;9.714;2023-05-10T00:22:25;211.10;;;110.60;;
10248;SDS011;5169;50.560;9.714;2023-05-10T00:24:53;215.03;;;110.33;;
10248;SDS011;5169;50.560;9.714;2023-05-10T00:27:19;209.13;;;101.07;;
10248;SDS011;5169;50.560;9.714;2023-05-10T00:29:45;213.53;;;102.70;;
10248;SDS011;5169;50.560;9.714;2023-05-10T00:32:13;209.60;;;102.03;;
10248;SDS011;5169;50.560;9.714;2023-05-10T00:34:41;216.77;;;107.20;;
10248;SDS011;5169;50.560;9.714;2023-05-10T00:37:07;211.70;;;105.13;;
10248;SDS011;5169;50.560;9.714;2023-05-10T00:39:32;212.13;;;103.50;;
10248;SDS011;5169;50.560;9.714;2023-05-10T00:41:58;211.00;;;99.47;;
10248;SDS011;5169;50.560;9.714;2023-05-10T00:44:27;212.47;;;99.40;;
10248;SDS011;5169;50.560;9.714;2023-05-10T00:46:52;212.40;;;100.30;;
10248;SDS011;5169;50.560;9.714;2023-05-10T00:49:18;220.13;;;103.77;;
10248;SDS011;5169;50.560;9.714;2023-05-10T00:51:47;217.07;;;99.47;;
10248;SDS011;5169;50.560;9.714;2023-05-10T00:54:14;208.47;;;98.13;;
10248;SDS011;5169;50.560;9.714;2023-05-10T00:56:42;211.63;;;98.97;;
10248;SDS011;5169;50.560;9.714;2023-05-10T00:59:14;209.40;;;101.90;;
10248;SDS011;5169;50.560;9.714;2023-05-10T01:01:48;208.03;;;99.97;;
10248;SDS011;5169;50.560;9.714;2023-05-10T01:04:14;219.80;;;101.47;;
10248;SDS011;5169;50.560;9.714;2023-05-10T01:06:42;211.80;;;97.97;;
10248;SDS011;5169;50.560;9.714;2023-05-10T01:15:21;205.60;;;90.83;;
10248;SDS011;5169;50.560;9.714;2023-05-10T01:17:49;216.27;;;92.37;;
10248;SDS011;5169;50.560;9.714;2023-05-10T01:20:15;214.77;;;93.43;;
10248;SDS011;5169;50.560;9.714;2023-05-10T01:22:49;214.87;;;98.00;;
10248;SDS011;5169;50.560;9.714;2023-05-10T01:29:03;206.47;;;92.47;;
10248;SDS011;5169;50.560;9.714;2023-05-10T01:34:27;216.60;;;91.23;;
10248;SDS011;5169;50.560;9.714;2023-05-10T01:37:02;210.43;;;90.00;;
10248;SDS011;5169;50.560;9.714;2023-05-10T01:39:45;224.33;;;96.27;;
10248;SDS011;5169;50.560;9.714;2023-05-10T01:42:25;226.50;;;92.63;;
10248;SDS011;5169;50.560;9.714;2023-05-10T01:45:02;224.83;;;92.20;;
10248;SDS011;5169;50.560;9.714;2023-05-10T01:47:40;211.63;;;87.53;;
10248;SDS011;5169;50.560;9.714;2023-05-10T01:50:16;216.77;;;91.13;;
10248;SDS011;5169;50.560;9.714;2023-05-10T01:52:54;215.50;;;91.00;;
10248;SDS011;5169;50.560;9.714;2023-05-10T01:55:25;221.13;;;90.80;;
10248;SDS011;5169;50.560;9.714;2023-05-10T01:58:01;225.80;;;94.17;;
10248;SDS011;5169;50.560;9.714;2023-05-10T02:00:34;225.80;;;89.37;;
10248;SDS011;5169;50.560;9.714;2023-05-10T02:03:05;222.20;;;95.60;;
10248;SDS011;5169;50.560;9.714;2023-05-10T02:05:36;226.50;;;90.67;;
10248;SDS011;5169;50.560;9.714;2023-05-10T02:08:05;217.70;;;85.87;;
10248;SDS011;5169;50.560;9.714;2023-05-10T02:10:39;218.00;;;89.70;;
10248;SDS011;5169;50.560;9.714;2023-05-10T02:13:14;217.93;;;90.27;;
10248;SDS011;5169;50.560;9.714;2023-05-10T02:15:41;214.63;;;87.53;;
10248;SDS011;5169;50.560;9.714;2023-05-10T02:18:09;223.80;;;89.90;;
10248;SDS011;5169;50.560;9.714;2023-05-10T02:20:43;229.10;;;86.30;;
10248;SDS011;5169;50.560;9.714;2023-05-10T02:23:11;227.53;;;81.83;;
10248;SDS011;5169;50.560;9.714;2023-05-10T02:25:43;226.57;;;80.77;;
10248;SDS011;5169;50.560;9.714;2023-05-10T02:28:12;220.77;;;76.73;;
10248;SDS011;5169;50.560;9.714;2023-05-10T02:30:39;226.83;;;78.73;;
10248;SDS011;5169;50.560;9.714;2023-05-10T02:33:12;226.03;;;82.13;;
10248;SDS011;5169;50.560;9.714;2023-05-10T02:35:38;232.27;;;76.53;;
10248;SDS011;5169;50.560;9.714;2023-05-10T02:38:05;229.50;;;77.40;;
10248;SDS011;5169;50.560;9.714;2023-05-10T02:40:35;228.13;;;77.57;;
10248;SDS011;5169;50.560;9.714;2023-05-10T02:43:07;229.57;;;75.53;;
10248;SDS011;5169;50.560;9.714;2023-05-10T02:45:38;241.80;;;74.47;;
10248;SDS011;5169;50.560;9.714;2023-05-10T02:48:05;229.60;;;75.80;;
10248;SDS011;5169;50.560;9.714;2023-05-10T02:50:39;232.60;;;73.37;;
10248;SDS011;5169;50.560;9.714;2023-05-10T02:53:27;230.93;;;75.43;;
10248;SDS011;5169;50.560;9.714;2023-05-10T02:55:58;219.87;;;71.20;;
10248;SDS011;5169;50.560;9.714;2023-05-10T02:58:32;238.87;;;75.37;;
10248;SDS011;5169;50.560;9.714;2023-05-10T03:01:09;236.33;;;75.33;;
10248;SDS011;5169;50.560;9.714;2023-05-10T03:03:37;229.90;;;72.60;;
10248;SDS011;5169;50.560;9.714;2023-05-10T03:06:03;229.97;;;71.13;;
10248;SDS011;5169;50.560;9.714;2023-05-10T03:08:32;222.33;;;68.27;;
10248;SDS011;5169;50.560;9.714;2023-05-10T03:11:06;234.13;;;72.33;;
10248;SDS011;5169;50.560;9.714;2023-05-10T03:13:39;225.40;;;70.03;;
10248;SDS011;5169;50.560;9.714;2023-05-10T03:16:25;231.80;;;71.43;;
10248;SDS011;5169;50.560;9.714;2023-05-10T03:18:56;237.67;;;71.97;;
10248;SDS011;5169;50.560;9.714;2023-05-10T03:21:28;228.50;;;70.47;;
10248;SDS011;5169;50.560;9.714;2023-05-10T03:24:01;224.00;;;72.53;;
10248;SDS011;5169;50.560;9.714;2023-05-10T03:26:40;230.97;;;73.53;;
10248;SDS011;5169;50.560;9.714;2023-05-10T03:29:11;224.20;;;72.73;;
10248;SDS011;5169;50.560;9.714;2023-05-10T03:31:41;225.73;;;72.03;;
10248;SDS011;5169;50.560;9.714;2023-05-10T03:34:11;228.60;;;72.40;;
10248;SDS011;5169;50.560;9.714;2023-05-10T03:36:39;248.27;;;75.53;;
10248;SDS011;5169;50.560;9.714;2023-05-10T03:39:05;237.50;;;72.93;;
10248;SDS011;5169;50.560;9.714;2023-05-10T03:41:30;235.20;;;71.73;;
10248;SDS011;5169;50.560;9.714;2023-05-10T03:44:00;237.23;;;74.13;;
10248;SDS011;5169;50.560;9.714;2023-05-10T03:46:26;231.07;;;71.80;;
10248;SDS011;5169;50.560;9.714;2023-05-10T03:48:52;246.20;;;76.80;;
10248;SDS011;5169;50.560;9.714;2023-05-10T03:51:17;241.27;;;76.87;;
10248;SDS011;5169;50.560;9.714;2023-05-10T03:53:43;246.27;;;77.43;;
10248;SDS011;5169;50.560;9.714;2023-05-10T03:56:14;268.43;;;80.37;;
10248;SDS011;5169;50.560;9.714;2023-05-10T03:58:40;267.93;;;80.07;;
10248;SDS011;5169;50.560;9.714;2023-05-10T04:01:06;257.80;;;76.90;;
10248;SDS011;5169;50.560;9.714;2023-05-10T04:03:31;268.30;;;84.80;;
10248;SDS011;5169;50.560;9.714;2023-05-10T04:06:00;263.53;;;81.77;;
10248;SDS011;5169;50.560;9.714;2023-05-10T04:08:26;269.70;;;82.27;;
10248;SDS011;5169;50.560;9.714;2023-05-10T04:10:52;260.83;;;77.73;;
10248;SDS011;5169;50.560;9.714;2023-05-10T04:13:18;274.87;;;81.07;;
10248;SDS011;5169;50.560;9.714;2023-05-10T04:15:44;279.10;;;83.00;;
10248;SDS011;5169;50.560;9.714;2023-05-10T04:18:09;272.67;;;80.43;;
10248;SDS011;5169;50.560;9.714;2023-05-10T04:20:37;270.73;;;83.23;;
10248;SDS011;5169;50.560;9.714;2023-05-10T04:23:03;268.53;;;80.47;;
10248;SDS011;5169;50.560;9.714;2023-05-10T04:25:33;275.63;;;83.10;;
10248;SDS011;5169;50.560;9.714;2023-05-10T04:28:01;274.43;;;81.97;;
10248;SDS011;5169;50.560;9.714;2023-05-10T04:30:27;268.93;;;80.10;;
10248;SDS011;5169;50.560;9.714;2023-05-10T04:32:54;273.07;;;79.40;;
10248;SDS011;5169;50.560;9.714;2023-05-10T04:35:19;266.10;;;78.23;;
10248;SDS011;5169;50.560;9.714;2023-05-10T04:37:51;264.27;;;77.87;;
10248;SDS011;5169;50.560;9.714;2023-05-10T04:40:16;276.90;;;79.50;;
10248;SDS011;5169;50.560;9.714;2023-05-10T04:42:43;273.27;;;84.13;;
10248;SDS011;5169;50.560;9.714;2023-05-10T04:45:09;270.67;;;83.50;;
10248;SDS011;5169;50.560;9.714;2023-05-10T04:47:40;268.07;;;80.93;;
10248;SDS011;5169;50.560;9.714;2023-05-10T04:50:06;259.43;;;78.27;;
10248;SDS011;5169;50.560;9.714;2023-05-10T04:52:40;261.63;;;80.47;;
10248;SDS011;5169;50.560;9.714;2023-05-10T04:55:06;272.17;;;81.93;;
10248;SDS011;5169;50.560;9.714;2023-05-10T04:57:37;270.47;;;77.63;;
10248;SDS011;5169;50.560;9.714;2023-05-10T05:00:07;269.80;;;81.77;;
10248;SDS011;5169;50.560;9.714;2023-05-10T05:02:42;261.70;;;79.53;;
10248;SDS011;5169;50.560;9.714;2023-05-10T05:05:13;264.80;;;80.40;;
10248;SDS011;5169;50.560;9.714;2023-05-10T05:07:39;271.40;;;81.27;;
10248;SDS011;5169;50.560;9.714;2023-05-10T05:10:07;267.60;;;79.40;;
10248;SDS011;5169;50.560;9.714;2023-05-10T05:12:36;269.30;;;79.37;;
10248;SDS011;5169;50.560;9.714;2023-05-10T05:15:02;268.67;;;81.37;;
10248;SDS011;5169;50.560;9.714;2023-05-10T05:17:29;270.90;;;78.70;;
10248;SDS011;5169;50.560;9.714;2023-05-10T05:19:55;256.57;;;77.43;;
10248;SDS011;5169;50.560;9.714;2023-05-10T05:22:21;268.57;;;78.53;;
10248;SDS011;5169;50.560;9.714;2023-05-10T05:24:52;264.80;;;75.37;;
10248;SDS011;5169;50.560;9.714;2023-05-10T05:27:23;259.07;;;76.17;;
10248;SDS011;5169;50.560;9.714;2023-05-10T05:29:53;265.97;;;78.17;;
10248;SDS011;5169;50.560;9.714;2023-05-10T05:32:21;258.10;;;74.00;;
10248;SDS011;5169;50.560;9.714;2023-05-10T05:34:47;263.43;;;76.53;;
10248;SDS011;5169;50.560;9.714;2023-05-10T05:37:17;261.77;;;77.43;;
10248;SDS011;5169;50.560;9.714;2023-05-10T05:39:49;266.27;;;78.00;;
10248;SDS011;5169;50.560;9.714;2023-05-10T05:42:17;268.63;;;77.63;;
10248;SDS011;5169;50.560;9.714;2023-05-10T05:44:43;260.83;;;76.30;;
10248;SDS011;5169;50.560;9.714;2023-05-10T05:47:11;264.87;;;78.13;;
10248;SDS011;5169;50.560;9.714;2023-05-10T05:49:37;266.17;;;75.87;;
10248;SDS011;5169;50.560;9.714;2023-05-10T05:52:03;269.33;;;74.63;;
10248;SDS011;5169;50.560;9.714;2023-05-10T05:54:29;266.53;;;80.07;;
10248;SDS011;5169;50.560;9.714;2023-05-10T05:56:58;264.57;;;79.83;;
10248;SDS011;5169;50.560;9.714;2023-05-10T05:59:24;273.40;;;81.70;;
10248;SDS011;5169;50.560;9.714;2023-05-10T06:01:50;272.47;;;85.43;;
10248;SDS011;5169;50.560;9.714;2023-05-10T06:04:18;273.47;;;82.20;;
10248;SDS011;5169;50.560;9.714;2023-05-10T06:06:46;272.10;;;84.53;;
10248;SDS011;5169;50.560;9.714;2023-05-10T06:09:11;273.53;;;82.90;;
10248;SDS011;5169;50.560;9.714;2023-05-10T06:11:39;270.83;;;85.30;;
10248;SDS011;5169;50.560;9.714;2023-05-10T06:14:07;274.13;;;88.07;;
10248;SDS011;5169;50.560;9.714;2023-05-10T06:16:35;272.70;;;85.20;;
10248;SDS011;5169;50.560;9.714;2023-05-10T06:19:01;274.17;;;84.67;;
10248;SDS011;5169;50.560;9.714;2023-05-10T06:21:32;271.60;;;82.93;;
10248;SDS011;5169;50.560;9.714;2023-05-10T06:24:00;278.00;;;83.63;;
10248;SDS011;5169;50.560;9.714;2023-05-10T06:26:25;247.40;;;83.40;;
10248;SDS011;5169;50.560;9.714;2023-05-10T06:28:51;265.37;;;85.10;;
10248;SDS011;5169;50.560;9.714;2023-05-10T06:31:19;264.90;;;83.97;;
10248;SDS011;5169;50.560;9.714;2023-05-10T06:33:45;246.43;;;83.23;;
10248;SDS011;5169;50.560;9.714;2023-05-10T06:36:10;236.97;;;83.27;;
10248;SDS011;5169;50.560;9.714;2023-05-10T06:38:38;225.83;;;81.30;;
10248;SDS011;5169;50.560;9.714;2023-05-10T06:41:08;225.17;;;81.53;;
10248;SDS011;5169;50.560;9.714;2023-05-10T06:43:36;212.97;;;80.63;;
10248;SDS011;5169;50.560;9.714;2023-05-10T06:46:05;224.10;;;80.63;;
10248;SDS011;5169;50.560;9.714;2023-05-10T06:48:33;227.83;;;80.00;;
10248;SDS011;5169;50.560;9.714;2023-05-10T06:50:58;229.10;;;82.23;;
10248;SDS011;5169;50.560;9.714;2023-05-10T06:53:24;227.23;;;79.43;;
10248;SDS011;5169;50.560;9.714;2023-05-10T06:55:50;223.70;;;80.53;;
10248;SDS011;5169;50.560;9.714;2023-05-10T06:58:15;226.93;;;78.80;;
10248;SDS011;5169;50.560;9.714;2023-05-10T07:00:41;226.53;;;80.27;;
10248;SDS011;5169;50.560;9.714;2023-05-10T07:03:09;233.17;;;85.43;;
10248;SDS011;5169;50.560;9.714;2023-05-10T07:05:37;230.53;;;86.57;;
10248;SDS011;5169;50.560;9.714;2023-05-10T07:08:02;225.10;;;84.73;;
10248;SDS011;5169;50.560;9.714;2023-05-10T07:10:30;226.63;;;78.73;;
10248;SDS011;5169;50.560;9.714;2023-05-10T07:12:56;233.77;;;77.97;;
10248;SDS011;5169;50.560;9.714;2023-05-10T07:15:21;226.30;;;79.93;;
10248;SDS011;5169;50.560;9.714;2023-05-10T07:17:47;221.63;;;76.87;;
10248;SDS011;5169;50.560;9.714;2023-05-10T07:20:13;225.33;;;80.73;;
10248;SDS011;5169;50.560;9.714;2023-05-10T07:22:39;227.80;;;79.90;;
10248;SDS011;5169;50.560;9.714;2023-05-10T07:25:05;217.70;;;80.77;;
10248;SDS011;5169;50.560;9.714;2023-05-10T07:27:31;224.17;;;82.73;;
10248;SDS011;5169;50.560;9.714;2023-05-10T07:29:56;220.70;;;83.73;;
10248;SDS011;5169;50.560;9.714;2023-05-10T07:32:27;218.67;;;81.80;;
10248;SDS011;5169;50.560;9.714;2023-05-10T07:34:53;216.30;;;82.63;;
10248;SDS011;5169;50.560;9.714;2023-05-10T07:37:18;220.50;;;84.27;;
10248;SDS011;5169;50.560;9.714;2023-05-10T07:39:46;220.13;;;81.83;;
10248;SDS011;5169;50.560;9.714;2023-05-10T07:42:12;217.80;;;83.63;;
10248;SDS011;5169;50.560;9.714;2023-05-10T07:44:37;213.57;;;82.97;;
10248;SDS011;5169;50.560;9.714;2023-05-10T07:47:03;218.53;;;82.23;;
10248;SDS011;5169;50.560;9.714;2023-05-10T07:49:28;228.70;;;82.93;;
10248;SDS011;5169;50.560;9.714;2023-05-10T07:51:54;231.10;;;86.03;;
10248;SDS011;5169;50.560;9.714;2023-05-10T07:54:20;231.53;;;82.00;;
10248;SDS011;5169;50.560;9.714;2023-05-10T07:56:46;231.70;;;88.40;;
10248;SDS011;5169;50.560;9.714;2023-05-10T07:59:15;234.00;;;87.97;;
10248;SDS011;5169;50.560;9.714;2023-05-10T08:01:42;243.53;;;90.00;;
10248;SDS011;5169;50.560;9.714;2023-05-10T08:04:10;233.53;;;86.57;;
10248;SDS011;5169;50.560;9.714;2023-05-10T08:06:38;228.93;;;89.70;;
10248;SDS011;5169;50.560;9.714;2023-05-10T08:09:07;235.67;;;91.33;;
10248;SDS011;5169;50.560;9.714;2023-05-10T08:11:33;229.60;;;94.07;;
10248;SDS011;5169;50.560;9.714;2023-05-10T08:13:59;228.83;;;91.73;;
10248;SDS011;5169;50.560;9.714;2023-05-10T08:16:24;229.43;;;93.73;;
10248;SDS011;5169;50.560;9.714;2023-05-10T08:18:50;232.70;;;92.27;;
10248;SDS011;5169;50.560;9.714;2023-05-10T08:21:20;231.20;;;88.60;;
10248;SDS011;5169;50.560;9.714;2023-05-10T08:23:45;238.47;;;93.37;;
10248;SDS011;5169;50.560;9.714;2023-05-10T08:26:11;236.30;;;90.13;;
10248;SDS011;5169;50.560;9.714;2023-05-10T08:28:37;226.67;;;93.50;;
10248;SDS011;5169;50.560;9.714;2023-05-10T08:31:04;233.90;;;90.57;;
10248;SDS011;5169;50.560;9.714;2023-05-10T08:33:32;236.77;;;87.37;;
10248;SDS011;5169;50.560;9.714;2023-05-10T08:36:00;233.37;;;93.00;;
10248;SDS011;5169;50.560;9.714;2023-05-10T08:38:25;224.60;;;92.07;;
10248;SDS011;5169;50.560;9.714;2023-05-10T08:40:54;225.97;;;90.80;;
10248;SDS011;5169;50.560;9.714;2023-05-10T08:43:25;224.60;;;88.23;;
10248;SDS011;5169;50.560;9.714;2023-05-10T08:45:53;232.60;;;93.43;;
10248;SDS011;5169;50.560;9.714;2023-05-10T08:48:20;234.03;;;93.13;;
10248;SDS011;5169;50.560;9.714;2023-05-10T08:50:52;222.80;;;92.03;;
10248;SDS011;5169;50.560;9.714;2023-05-10T08:53:22;223.33;;;95.10;;
10248;SDS011;5169;50.560;9.714;2023-05-10T08:55:51;229.77;;;100.00;;
10248;SDS011;5169;50.560;9.714;2023-05-10T08:58:17;213.53;;;101.30;;
10248;SDS011;5169;50.560;9.714;2023-05-10T09:00:44;232.93;;;101.23;;
10248;SDS011;5169;50.560;9.714;2023-05-10T09:03:13;233.47;;;94.40;;
10248;SDS011;5169;50.560;9.714;2023-05-10T09:05:39;232.83;;;99.70;;
10248;SDS011;5169;50.560;9.714;2023-05-10T09:08:05;239.00;;;100.40;;
10248;SDS011;5169;50.560;9.714;2023-05-10T09:10:33;238.20;;;96.87;;
10248;SDS011;5169;50.560;9.714;2023-05-10T09:12:58;234.37;;;96.43;;
10248;SDS011;5169;50.560;9.714;2023-05-10T09:15:24;231.63;;;96.17;;
10248;SDS011;5169;50.560;9.714;2023-05-10T09:17:50;235.43;;;95.50;;
10248;SDS011;5169;50.560;9.714;2023-05-10T09:20:15;227.13;;;96.43;;
10248;SDS011;5169;50.560;9.714;2023-05-10T09:22:46;227.17;;;89.20;;
10248;SDS011;5169;50.560;9.714;2023-05-10T09:25:13;233.37;;;92.50;;
10248;SDS011;5169;50.560;9.714;2023-05-10T09:27:46;226.50;;;90.97;;
10248;SDS011;5169;50.560;9.714;2023-05-10T09:30:23;234.83;;;92.23;;
10248;SDS011;5169;50.560;9.714;2023-05-10T09:32:51;231.13;;;91.77;;
10248;SDS011;5169;50.560;9.714;2023-05-10T09:35:22;225.10;;;95.90;;
10248;SDS011;5169;50.560;9.714;2023-05-10T09:37:50;226.77;;;96.70;;
10248;SDS011;5169;50.560;9.714;2023-05-10T09:40:25;224.73;;;91.83;;
10248;SDS011;5169;50.560;9.714;2023-05-10T09:42:53;209.33;;;96.30;;
10248;SDS011;5169;50.560;9.714;2023-05-10T09:45:27;225.20;;;104.00;;
10248;SDS011;5169;50.560;9.714;2023-05-10T09:47:57;222.50;;;107.87;;
10248;SDS011;5169;50.560;9.714;2023-05-10T09:50:27;216.27;;;109.97;;
10248;SDS011;5169;50.560;9.714;2023-05-10T09:52:57;214.37;;;113.63;;
10248;SDS011;5169;50.560;9.714;2023-05-10T09:55:40;213.13;;;108.33;;
10248;SDS011;5169;50.560;9.714;2023-05-10T09:58:09;213.47;;;103.73;;
10248;SDS011;5169;50.560;9.714;2023-05-10T10:00:41;208.20;;;105.03;;
10248;SDS011;5169;50.560;9.714;2023-05-10T10:03:16;190.43;;;97.90;;
10248;SDS011;5169;50.560;9.714;2023-05-10T10:05:43;202.07;;;101.37;;
10248;SDS011;5169;50.560;9.714;2023-05-10T10:08:12;206.70;;;106.63;;
10248;SDS011;5169;50.560;9.714;2023-05-10T10:10:40;211.57;;;104.73;;
10248;SDS011;5169;50.560;9.714;2023-05-10T10:13:09;207.30;;;106.20;;
10248;SDS011;5169;50.560;9.714;2023-05-10T10:15:35;219.50;;;119.73;;
10248;SDS011;5169;50.560;9.714;2023-05-10T10:18:06;226.73;;;122.63;;
10248;SDS011;5169;50.560;9.714;2023-05-10T10:20:37;224.20;;;125.57;;
10248;SDS011;5169;50.560;9.714;2023-05-10T10:23:02;221.83;;;132.00;;
10248;SDS011;5169;50.560;9.714;2023-05-10T10:25:28;226.30;;;133.77;;
10248;SDS011;5169;50.560;9.714;2023-05-10T10:35:59;214.83;;;136.50;;
10248;SDS011;5169;50.560;9.714;2023-05-10T10:57:18;229.87;;;162.63;;
10248;SDS011;5169;50.560;9.714;2023-05-10T10:59:46;229.27;;;176.03;;
10248;SDS011;5169;50.560;9.714;2023-05-10T11:08:07;224.30;;;181.30;;
10248;SDS011;5169;50.560;9.714;2023-05-10T11:10:36;226.80;;;191.67;;
10248;SDS011;5169;50.560;9.714;2023-05-10T11:13:05;230.20;;;183.23;;
10248;SDS011;5169;50.560;9.714;2023-05-10T11:15:37;227.27;;;169.77;;
10248;SDS011;5169;50.560;9.714;2023-05-10T11:18:16;193.43;;;158.33;;
10248;SDS011;5169;50.560;9.714;2023-05-10T11:21:02;199.03;;;159.13;;
10248;SDS011;5169;50.560;9.714;2023-05-10T11:23:48;217.57;;;143.10;;
10248;SDS011;5169;50.560;9.714;2023-05-10T11:26:34;197.13;;;138.63;;
10248;SDS011;5169;50.560;9.714;2023-05-10T11:29:02;204.53;;;123.40;;
10248;SDS011;5169;50.560;9.714;2023-05-10T11:31:30;202.00;;;130.33;;
10248;SDS011;5169;50.560;9.714;2023-05-10T11:33:56;197.83;;;129.80;;
10248;SDS011;5169;50.560;9.714;2023-05-10T11:36:27;196.83;;;136.60;;
10248;SDS011;5169;50.560;9.714;2023-05-10T11:38:54;207.93;;;134.27;;
10248;SDS011;5169;50.560;9.714;2023-05-10T11:41:24;206.57;;;135.33;;
10248;SDS011;5169;50.560;9.714;2023-05-10T11:43:50;207.63;;;134.00;;
10248;SDS011;5169;50.560;9.714;2023-05-10T11:46:21;212.20;;;140.07;;
10248;SDS011;5169;50.560;9.714;2023-05-10T11:49:00;206.57;;;133.67;;
10248;SDS011;5169;50.560;9.714;2023-05-10T11:51:29;218.40;;;131.30;;
10248;SDS011;5169;50.560;9.714;2023-05-10T11:54:00;211.67;;;125.53;;
10248;SDS011;5169;50.560;9.714;2023-05-10T11:56:30;209.33;;;115.40;;
10248;SDS011;5169;50.560;9.714;2023-05-10T11:58:58;225.20;;;120.17;;
10248;SDS011;5169;50.560;9.714;2023-05-10T12:01:26;221.23;;;105.93;;
10248;SDS011;5169;50.560;9.714;2023-05-10T12:03:56;219.00;;;102.53;;
10248;SDS011;5169;50.560;9.714;2023-05-10T12:06:26;224.03;;;101.20;;
10248;SDS011;5169;50.560;9.714;2023-05-10T12:08:53;227.63;;;100.37;;
10248;SDS011;5169;50.560;9.714;2023-05-10T12:11:19;223.47;;;100.37;;
10248;SDS011;5169;50.560;9.714;2023-05-10T12:13:49;227.20;;;93.53;;
10248;SDS011;5169;50.560;9.714;2023-05-10T12:16:24;226.63;;;92.70;;
10248;SDS011;5169;50.560;9.714;2023-05-10T12:18:54;230.77;;;93.10;;
10248;SDS011;5169;50.560;9.714;2023-05-10T12:21:22;235.03;;;96.50;;
10248;SDS011;5169;50.560;9.714;2023-05-10T12:23:49;224.83;;;90.17;;
10248;SDS011;5169;50.560;9.714;2023-05-10T12:26:16;234.00;;;100.93;;
10248;SDS011;5169;50.560;9.714;2023-05-10T12:28:42;223.57;;;97.23;;
10248;SDS011;5169;50.560;9.714;2023-05-10T12:31:07;236.60;;;104.47;;
10248;SDS011;5169;50.560;9.714;2023-05-10T12:33:37;237.97;;;111.07;;
10248;SDS011;5169;50.560;9.714;2023-05-10T12:36:04;253.67;;;112.37;;
10248;SDS011;5169;50.560;9.714;2023-05-10T12:38:34;249.93;;;112.23;;
10248;SDS011;5169;50.560;9.714;2023-05-10T12:41:04;271.03;;;116.97;;
10248;SDS011;5169;50.560;9.714;2023-05-10T12:43:36;268.20;;;116.70;;
10248;SDS011;5169;50.560;9.714;2023-05-10T12:46:14;226.67;;;115.13;;
10248;SDS011;5169;50.560;9.714;2023-05-10T12:48:41;237.80;;;116.57;;
10248;SDS011;5169;50.560;9.714;2023-05-10T12:51:08;251.73;;;114.00;;
10248;SDS011;5169;50.560;9.714;2023-05-10T12:53:34;267.70;;;115.67;;
10248;SDS011;5169;50.560;9.714;2023-05-10T12:56:00;256.93;;;117.17;;
10248;SDS011;5169;50.560;9.714;2023-05-10T12:58:26;270.17;;;119.83;;
10248;SDS011;5169;50.560;9.714;2023-05-10T13:00:52;274.17;;;116.87;;
10248;SDS011;5169;50.560;9.714;2023-05-10T13:03:17;274.90;;;113.87;;
10248;SDS011;5169;50.560;9.714;2023-05-10T13:05:46;255.13;;;111.30;;
10248;SDS011;5169;50.560;9.714;2023-05-10T13:08:12;229.87;;;112.00;;
10248;SDS011;5169;50.560;9.714;2023-05-10T13:10:37;208.30;;;112.73;;
10248;SDS011;5169;50.560;9.714;2023-05-10T13:13:05;209.73;;;108.97;;
10248;SDS011;5169;50.560;9.714;2023-05-10T13:15:34;207.70;;;110.63;;
10248;SDS011;5169;50.560;9.714;2023-05-10T13:18:00;211.13;;;114.33;;
10248;SDS011;5169;50.560;9.714;2023-05-10T13:20:26;214.40;;;110.67;;
10248;SDS011;5169;50.560;9.714;2023-05-10T13:22:52;215.83;;;110.63;;
10248;SDS011;5169;50.560;9.714;2023-05-10T13:25:18;217.27;;;110.67;;
10248;SDS011;5169;50.560;9.714;2023-05-10T13:27:44;211.83;;;109.20;;
10248;SDS011;5169;50.560;9.714;2023-05-10T13:30:10;208.40;;;118.10;;
10248;SDS011;5169;50.560;9.714;2023-05-10T13:32:36;211.83;;;114.53;;
10248;SDS011;5169;50.560;9.714;2023-05-10T13:35:02;209.90;;;113.03;;
10248;SDS011;5169;50.560;9.714;2023-05-10T13:37:28;212.97;;;113.47;;
10248;SDS011;5169;50.560;9.714;2023-05-10T13:39:54;208.07;;;114.57;;
10248;SDS011;5169;50.560;9.714;2023-05-10T13:42:21;208.00;;;111.27;;
10248;SDS011;5169;50.560;9.714;2023-05-10T13:44:47;199.80;;;101.43;;
10248;SDS011;5169;50.560;9.714;2023-05-10T13:47:15;206.47;;;100.67;;
10248;SDS011;5169;50.560;9.714;2023-05-10T13:49:41;190.30;;;98.73;;
10248;SDS011;5169;50.560;9.714;2023-05-10T13:52:07;196.73;;;96.10;;
10248;SDS011;5169;50.560;9.714;2023-05-10T13:54:38;201.47;;;100.10;;
10248;SDS011;5169;50.560;9.714;2023-05-10T13:57:04;199.03;;;100.93;;
10248;SDS011;5169;50.560;9.714;2023-05-10T13:59:30;205.50;;;99.23;;
10248;SDS011;5169;50.560;9.714;2023-05-10T14:01:58;203.27;;;95.60;;
10248;SDS011;5169;50.560;9.714;2023-05-10T14:04:24;201.30;;;97.80;;
10248;SDS011;5169;50.560;9.714;2023-05-10T14:06:53;198.90;;;91.70;;
10248;SDS011;5169;50.560;9.714;2023-05-10T14:09:18;202.93;;;97.90;;
10248;SDS011;5169;50.560;9.714;2023-05-10T14:11:47;192.77;;;96.07;;
10248;SDS011;5169;50.560;9.714;2023-05-10T14:14:12;201.50;;;98.17;;
10248;SDS011;5169;50.560;9.714;2023-05-10T14:16:43;210.60;;;97.13;;
10248;SDS011;5169;50.560;9.714;2023-05-10T14:19:12;215.83;;;97.87;;
10248;SDS011;5169;50.560;9.714;2023-05-10T14:21:40;215.60;;;93.03;;
10248;SDS011;5169;50.560;9.714;2023-05-10T14:24:05;204.70;;;92.13;;
10248;SDS011;5169;50.560;9.714;2023-05-10T14:26:32;201.40;;;93.93;;
10248;SDS011;5169;50.560;9.714;2023-05-10T14:28:58;221.67;;;100.10;;
10248;SDS011;5169;50.560;9.714;2023-05-10T14:31:24;215.77;;;98.60;;
10248;SDS011;5169;50.560;9.714;2023-05-10T14:33:50;222.70;;;103.67;;
10248;SDS011;5169;50.560;9.714;2023-05-10T14:36:16;220.40;;;98.20;;
10248;SDS011;5169;50.560;9.714;2023-05-10T14:38:42;227.50;;;102.50;;
10248;SDS011;5169;50.560;9.714;2023-05-10T14:41:08;229.13;;;96.03;;
10248;SDS011;5169;50.560;9.714;2023-05-10T14:43:34;226.80;;;95.87;;
10248;SDS011;5169;50.560;9.714;2023-05-10T14:46:00;227.03;;;97.90;;
10248;SDS011;5169;50.560;9.714;2023-05-10T14:48:25;226.13;;;96.27;;
10248;SDS011;5169;50.560;9.714;2023-05-10T14:50:51;231.67;;;97.50;;
10248;SDS011;5169;50.560;9.714;2023-05-10T14:53:17;222.67;;;94.90;;
10248;SDS011;5169;50.560;9.714;2023-05-10T14:55:43;220.03;;;97.67;;
10248;SDS011;5169;50.560;9.714;2023-05-10T14:58:11;230.87;;;100.83;;
10248;SDS011;5169;50.560;9.714;2023-05-10T15:00:37;231.47;;;100.87;;
10248;SDS011;5169;50.560;9.714;2023-05-10T15:03:02;232.33;;;98.87;;
10248;SDS011;5169;50.560;9.714;2023-05-10T15:05:28;237.07;;;102.17;;
10248;SDS011;5169;50.560;9.714;2023-05-10T15:07:54;245.67;;;103.70;;
10248;SDS011;5169;50.560;9.714;2023-05-10T15:10:19;240.93;;;103.17;;